createdAt,value
2019-04-27T00:00:14.171Z,25.60
2019-04-27T00:01:13.652Z,23.10
2019-04-27T00:02:13.480Z,25.80
2019-04-27T00:03:13.303Z,23.00
2019-04-27T00:04:16.239Z,23.00
2019-04-27T00:05:14.317Z,21.00
2019-04-27T00:06:13.471Z,21.70
2019-04-27T00:07:13.129Z,21.00
2019-04-27T00:08:11.869Z,19.20
2019-04-27T00:09:12.985Z,21.00
2019-04-27T00:10:13.579Z,19.80
2019-04-27T00:11:13.528Z,18.90
2019-04-27T00:12:16.549Z,22.20
2019-04-27T00:13:12.930Z,19.20
2019-04-27T00:14:14.939Z,18.00
2019-04-27T00:15:13.220Z,18.30
2019-04-27T00:16:13.332Z,18.90
2019-04-27T00:17:12.904Z,18.90
2019-04-27T00:18:13.946Z,18.70
2019-04-27T00:19:13.174Z,18.20
2019-04-27T00:20:13.114Z,19.40
2019-04-27T00:21:11.704Z,19.60
2019-04-27T00:22:13.248Z,19.70
2019-04-27T00:23:13.236Z,20.00
2019-04-27T00:24:13.416Z,19.10
2019-04-27T00:25:13.012Z,20.00
2019-04-27T00:26:13.073Z,20.40
2019-04-27T00:27:13.264Z,19.60
2019-04-27T00:28:12.879Z,20.80
2019-04-27T00:29:11.650Z,20.90
2019-04-27T00:30:11.604Z,20.20
2019-04-27T00:31:13.161Z,21.70
2019-04-27T00:32:13.179Z,24.80
2019-04-27T00:33:13.612Z,21.10
2019-04-27T00:34:11.584Z,21.60
2019-04-27T00:35:11.546Z,21.00
2019-04-27T00:36:13.005Z,20.60
2019-04-27T00:37:11.528Z,21.40
2019-04-27T00:38:13.055Z,21.70
2019-04-27T00:39:11.536Z,21.90
2019-04-27T00:40:12.984Z,20.00
2019-04-27T00:41:11.485Z,21.00
2019-04-27T00:42:11.473Z,20.60
2019-04-27T00:43:11.467Z,22.10
2019-04-27T00:44:11.487Z,20.90
2019-04-27T00:45:13.408Z,21.00
2019-04-27T00:46:11.436Z,21.10
2019-04-27T00:47:11.429Z,20.40
2019-04-27T00:48:13.262Z,20.90
2019-04-27T00:49:11.424Z,20.40
2019-04-27T00:50:11.390Z,19.00
2019-04-27T00:51:14.195Z,20.40
2019-04-27T00:52:11.369Z,20.50
2019-04-27T00:53:11.363Z,20.10
2019-04-27T00:54:11.374Z,19.10
2019-04-27T00:55:13.075Z,19.90
2019-04-27T00:56:11.329Z,20.40
2019-04-27T00:57:12.974Z,18.80
2019-04-27T00:58:12.946Z,19.80
2019-04-27T00:59:11.320Z,19.10
2019-04-27T01:00:11.282Z,19.50
2019-04-27T01:01:12.717Z,19.40
2019-04-27T01:02:11.269Z,20.30
2019-04-27T01:03:11.254Z,18.80
2019-04-27T01:04:11.283Z,17.90
2019-04-27T01:05:12.994Z,17.60
2019-04-27T01:06:11.219Z,18.90
2019-04-27T01:07:11.211Z,17.30
2019-04-27T01:08:11.208Z,16.60
2019-04-27T01:09:11.189Z,17.50
2019-04-27T01:10:13.362Z,18.40
2019-04-27T01:11:11.165Z,17.40
2019-04-27T01:12:11.158Z,18.10
2019-04-27T01:13:11.149Z,16.90
2019-04-27T01:14:12.768Z,16.90
2019-04-27T01:15:11.156Z,17.40
2019-04-27T01:16:13.237Z,18.50
2019-04-27T01:17:11.099Z,16.70
2019-04-27T01:18:14.632Z,16.90
2019-04-27T01:19:11.084Z,16.00
2019-04-27T01:20:11.097Z,15.80
2019-04-27T01:21:11.063Z,16.60
2019-04-27T01:22:11.047Z,15.80
2019-04-27T01:23:11.043Z,14.80
2019-04-27T01:24:11.029Z,14.80
2019-04-27T01:25:11.042Z,15.20
2019-04-27T01:26:11.019Z,14.40
2019-04-27T01:27:10.997Z,14.50
2019-04-27T01:28:10.983Z,14.30
2019-04-27T01:29:10.974Z,15.40
2019-04-27T01:30:10.988Z,14.50
2019-04-27T01:31:10.958Z,13.70
2019-04-27T01:32:10.948Z,14.00
2019-04-27T01:33:10.932Z,15.20
2019-04-27T01:34:10.921Z,13.60
2019-04-27T01:35:10.931Z,13.30
2019-04-27T01:36:10.901Z,13.30
2019-04-27T01:37:10.885Z,13.90
2019-04-27T01:38:10.878Z,12.50
2019-04-27T01:39:10.867Z,13.70
2019-04-27T01:40:10.889Z,14.20
2019-04-27T01:41:10.851Z,13.40
2019-04-27T01:42:10.834Z,15.30
2019-04-27T01:43:10.825Z,13.00
2019-04-27T01:44:10.825Z,11.90
2019-04-27T01:45:10.831Z,14.00
2019-04-27T01:46:10.794Z,14.50
2019-04-27T01:47:10.782Z,12.10
2019-04-27T01:48:22.167Z,14.50
2019-04-27T01:49:11.757Z,12.20
2019-04-27T01:50:10.774Z,12.40
2019-04-27T01:51:10.741Z,11.50
2019-04-27T01:52:10.728Z,13.60
2019-04-27T01:53:10.722Z,11.80
2019-04-27T01:54:10.708Z,12.00
2019-04-27T01:55:10.743Z,14.80
2019-04-27T01:56:10.685Z,11.30
2019-04-27T01:57:10.685Z,11.30
2019-04-27T01:58:10.989Z,11.40
2019-04-27T01:59:10.649Z,11.00
2019-04-27T02:00:10.649Z,11.70
2019-04-27T02:01:10.664Z,11.30
2019-04-27T02:02:10.669Z,10.20
2019-04-27T02:03:10.614Z,13.30
2019-04-27T02:04:10.597Z,10.30
2019-04-27T02:05:10.588Z,11.30
2019-04-27T02:06:10.604Z,12.50
2019-04-27T02:07:10.564Z,11.20
2019-04-27T02:08:10.557Z,10.90
2019-04-27T02:09:10.548Z,10.40
2019-04-27T02:10:10.540Z,11.20
2019-04-27T02:11:11.013Z,9.50
2019-04-27T02:12:10.526Z,11.10
2019-04-27T02:13:10.501Z,9.70
2019-04-27T02:14:10.495Z,9.90
2019-04-27T02:15:10.678Z,11.00
2019-04-27T02:16:10.500Z,13.40
2019-04-27T02:17:10.463Z,11.00
2019-04-27T02:18:10.450Z,10.20
2019-04-27T02:19:11.338Z,13.00
2019-04-27T02:20:10.452Z,11.60
2019-04-27T02:21:10.449Z,10.30
2019-04-27T02:22:10.403Z,12.20
2019-04-27T02:23:10.390Z,10.90
2019-04-27T02:24:11.274Z,13.20
2019-04-27T02:25:10.375Z,10.20
2019-04-27T02:26:10.377Z,10.80
2019-04-27T02:27:10.356Z,11.20
2019-04-27T02:28:10.373Z,10.80
2019-04-27T02:29:10.332Z,12.10
2019-04-27T02:30:11.682Z,12.20
2019-04-27T02:31:10.310Z,14.30
2019-04-27T02:32:10.776Z,12.30
2019-04-27T02:33:12.802Z,11.20
2019-04-27T02:34:10.284Z,11.70
2019-04-27T02:35:10.279Z,10.80
2019-04-27T02:36:14.740Z,11.30
2019-04-27T02:37:11.262Z,11.00
2019-04-27T02:38:10.264Z,12.50
2019-04-27T02:39:10.228Z,13.20
2019-04-27T02:40:10.215Z,11.90
2019-04-27T02:41:10.329Z,12.50
2019-04-27T02:42:10.312Z,12.20
2019-04-27T02:43:10.406Z,9.90
2019-04-27T02:44:10.174Z,10.80
2019-04-27T02:45:10.163Z,11.20
2019-04-27T02:46:10.152Z,10.90
2019-04-27T02:47:10.716Z,10.30
2019-04-27T02:48:10.158Z,10.10
2019-04-27T02:49:10.685Z,10.00
2019-04-27T02:50:10.820Z,9.30
2019-04-27T02:51:10.202Z,8.70
2019-04-27T02:52:10.089Z,8.00
2019-04-27T02:53:11.106Z,9.80
2019-04-27T02:54:12.546Z,9.10
2019-04-27T02:55:10.053Z,10.20
2019-04-27T02:56:10.473Z,9.60
2019-04-27T02:57:10.372Z,9.80
2019-04-27T02:58:12.960Z,8.90
2019-04-27T02:59:11.916Z,10.40
2019-04-27T03:00:10.618Z,10.80
2019-04-27T03:01:10.173Z,10.50
2019-04-27T03:02:10.797Z,10.60
2019-04-27T03:03:10.421Z,9.00
2019-04-27T03:04:10.119Z,8.90
2019-04-27T03:05:12.782Z,10.30
2019-04-27T03:06:10.017Z,9.80
2019-04-27T03:07:11.424Z,11.20
2019-04-27T03:08:10.423Z,12.40
2019-04-27T03:09:10.527Z,10.40
2019-04-27T03:10:10.023Z,10.30
2019-04-27T03:11:10.135Z,10.80
2019-04-27T03:12:10.428Z,10.70
2019-04-27T03:13:11.112Z,13.90
2019-04-27T03:14:27.813Z,12.10
2019-04-27T03:15:10.840Z,12.00
2019-04-27T03:16:13.012Z,11.20
2019-04-27T03:17:10.037Z,12.20
2019-04-27T03:18:10.139Z,10.70
2019-04-27T03:19:17.153Z,10.90
2019-04-27T03:20:10.791Z,11.60
2019-04-27T03:21:12.771Z,12.00
2019-04-27T03:22:09.935Z,13.30
2019-04-27T03:23:09.861Z,12.50
2019-04-27T03:24:09.995Z,12.20
2019-04-27T03:25:11.621Z,13.50
2019-04-27T03:26:10.697Z,12.20
2019-04-27T03:27:09.858Z,12.00
2019-04-27T03:28:10.693Z,12.10
2019-04-27T03:29:09.992Z,11.90
2019-04-27T03:30:12.028Z,12.80
2019-04-27T03:31:13.538Z,11.80
2019-04-27T03:32:12.637Z,12.10
2019-04-27T03:33:11.769Z,10.30
2019-04-27T03:34:15.562Z,9.80
2019-04-27T03:35:12.707Z,9.30
2019-04-27T03:36:12.842Z,8.30
2019-04-27T03:37:10.277Z,10.00
2019-04-27T03:38:10.409Z,10.70
2019-04-27T03:39:10.253Z,9.70
2019-04-27T03:40:10.353Z,8.80
2019-04-27T03:41:09.734Z,8.20
2019-04-27T03:42:10.398Z,9.60
2019-04-27T03:43:11.703Z,8.60
2019-04-27T03:44:09.538Z,10.70
2019-04-27T03:45:10.708Z,9.90
2019-04-27T03:46:10.319Z,9.10
2019-04-27T03:47:12.533Z,9.60
2019-04-27T03:48:10.350Z,10.40
2019-04-27T03:49:09.843Z,8.20
2019-04-27T03:50:10.347Z,11.20
2019-04-27T03:51:10.094Z,9.20
2019-04-27T03:52:09.757Z,10.50
2019-04-27T03:53:10.309Z,10.60
2019-04-27T03:54:10.694Z,8.90
2019-04-27T03:55:10.386Z,11.30
2019-04-27T03:56:10.178Z,9.60
2019-04-27T03:57:10.026Z,12.20
2019-04-27T03:58:11.923Z,11.60
2019-04-27T03:59:10.284Z,11.30
2019-04-27T04:00:10.245Z,11.20
2019-04-27T04:01:10.517Z,12.50
2019-04-27T04:02:10.208Z,11.90
2019-04-27T04:03:10.697Z,10.70
2019-04-27T04:04:10.386Z,11.50
2019-04-27T04:05:09.869Z,11.50
2019-04-27T04:06:10.776Z,10.20
2019-04-27T04:07:09.631Z,9.50
2019-04-27T04:08:10.651Z,9.50
2019-04-27T04:09:10.155Z,9.20
2019-04-27T04:10:10.803Z,12.10
2019-04-27T04:11:10.321Z,10.40
2019-04-27T04:12:09.627Z,11.30
2019-04-27T04:13:10.753Z,11.80
2019-04-27T04:14:10.160Z,10.50
2019-04-27T04:15:09.979Z,10.30
2019-04-27T04:16:10.877Z,11.40
2019-04-27T04:17:12.392Z,10.30
2019-04-27T04:18:09.899Z,8.50
2019-04-27T04:19:09.822Z,10.50
2019-04-27T04:20:10.178Z,9.40
2019-04-27T04:21:09.599Z,9.80
2019-04-27T04:22:10.232Z,11.80
2019-04-27T04:23:10.811Z,8.00
2019-04-27T04:24:11.850Z,9.80
2019-04-27T04:25:10.738Z,8.70
2019-04-27T04:26:09.890Z,8.30
2019-04-27T04:27:09.945Z,9.70
2019-04-27T04:28:09.518Z,8.90
2019-04-27T04:29:10.248Z,9.50
2019-04-27T04:30:09.696Z,7.70
2019-04-27T04:31:13.530Z,8.50
2019-04-27T04:32:10.644Z,7.10
2019-04-27T04:33:10.146Z,8.30
2019-04-27T04:34:09.675Z,8.60
2019-04-27T04:35:10.319Z,7.30
2019-04-27T04:36:10.131Z,7.80
2019-04-27T04:37:09.321Z,9.80
2019-04-27T04:38:10.433Z,8.80
2019-04-27T04:39:10.395Z,6.70
2019-04-27T04:40:09.788Z,6.80
2019-04-27T04:41:09.609Z,10.60
2019-04-27T04:42:10.197Z,7.60
2019-04-27T04:43:10.849Z,7.10
2019-04-27T04:44:12.159Z,8.40
2019-04-27T04:45:10.539Z,7.60
2019-04-27T04:46:12.734Z,5.80
2019-04-27T04:47:10.335Z,6.80
2019-04-27T04:48:09.825Z,6.80
2019-04-27T04:49:09.488Z,6.00
2019-04-27T04:50:14.722Z,6.20
2019-04-27T04:51:10.243Z,6.80
2019-04-27T04:52:09.679Z,6.50
2019-04-27T04:53:12.563Z,7.40
2019-04-27T04:54:09.532Z,6.90
2019-04-27T04:55:10.199Z,5.70
2019-04-27T04:56:10.621Z,7.00
2019-04-27T04:57:09.337Z,7.10
2019-04-27T04:58:09.331Z,7.20
2019-04-27T04:59:10.067Z,8.00
2019-04-27T05:00:09.894Z,7.20
2019-04-27T05:01:09.880Z,5.50
2019-04-27T05:02:10.565Z,7.10
2019-04-27T05:03:09.412Z,7.50
2019-04-27T05:04:09.145Z,5.50
2019-04-27T05:05:09.360Z,7.60
2019-04-27T05:06:08.859Z,7.20
2019-04-27T05:07:09.229Z,6.80
2019-04-27T05:08:09.123Z,6.40
2019-04-27T05:09:09.267Z,5.50
2019-04-27T05:10:09.163Z,6.50
2019-04-27T05:11:09.623Z,6.00
2019-04-27T05:12:08.967Z,5.50
2019-04-27T05:13:09.341Z,5.30
2019-04-27T05:14:09.849Z,7.80
2019-04-27T05:15:09.135Z,7.40
2019-04-27T05:16:09.009Z,4.70
2019-04-27T05:17:09.438Z,6.70
2019-04-27T05:18:09.124Z,5.30
2019-04-27T05:19:11.049Z,5.70
2019-04-27T05:20:16.624Z,6.50
2019-04-27T05:21:09.506Z,5.20
2019-04-27T05:22:09.347Z,5.00
2019-04-27T05:23:09.624Z,6.50
2019-04-27T05:24:09.403Z,5.30
2019-04-27T05:25:09.330Z,4.10
2019-04-27T05:26:09.211Z,5.80
2019-04-27T05:27:09.235Z,6.60
2019-04-27T05:28:09.769Z,5.30
2019-04-27T05:29:09.147Z,4.60
2019-04-27T05:30:09.321Z,5.00
2019-04-27T05:31:09.095Z,5.70
2019-04-27T05:32:09.110Z,5.70
2019-04-27T05:33:08.913Z,5.60
2019-04-27T05:34:09.563Z,5.80
2019-04-27T05:35:08.805Z,4.20
2019-04-27T05:36:09.197Z,4.40
2019-04-27T05:37:08.911Z,5.60
2019-04-27T05:38:11.041Z,3.70
2019-04-27T05:39:10.691Z,4.00
2019-04-27T05:40:09.165Z,5.10
2019-04-27T05:41:08.591Z,5.90
2019-04-27T05:42:11.005Z,5.70
2019-04-27T05:43:09.272Z,5.90
2019-04-27T05:44:12.704Z,5.00
2019-04-27T05:45:09.270Z,5.20
2019-04-27T05:46:10.863Z,5.50
2019-04-27T05:47:09.990Z,4.30
2019-04-27T05:48:09.394Z,3.90
2019-04-27T05:49:09.523Z,4.40
2019-04-27T05:50:09.078Z,5.20
2019-04-27T05:51:09.185Z,6.10
2019-04-27T05:52:14.466Z,5.50
2019-04-27T05:53:09.163Z,5.80
2019-04-27T05:54:09.067Z,5.10
2019-04-27T05:55:08.738Z,4.70
2019-04-27T05:56:09.424Z,4.60
2019-04-27T05:57:09.507Z,5.10
2019-04-27T05:58:09.316Z,3.90
2019-04-27T05:59:09.157Z,4.80
2019-04-27T06:00:09.164Z,4.90
2019-04-27T06:01:09.577Z,5.30
2019-04-27T06:02:09.391Z,5.90
2019-04-27T06:03:09.084Z,4.00
2019-04-27T06:04:09.069Z,5.10
2019-04-27T06:05:08.828Z,6.20
2019-04-27T06:06:09.649Z,4.10
2019-04-27T06:07:09.228Z,5.50
2019-04-27T06:08:08.713Z,5.20
2019-04-27T06:09:09.480Z,5.60
2019-04-27T06:10:09.197Z,6.40
2019-04-27T06:11:09.403Z,8.20
2019-04-27T06:12:08.979Z,4.60
2019-04-27T06:13:08.432Z,8.90
2019-04-27T06:14:09.687Z,4.30
2019-04-27T06:15:09.524Z,4.60
2019-04-27T06:16:09.474Z,4.60
2019-04-27T06:17:09.477Z,4.50
2019-04-27T06:18:09.278Z,5.80
2019-04-27T06:19:09.534Z,6.30
2019-04-27T06:20:09.072Z,4.80
2019-04-27T06:21:09.576Z,5.00
2019-04-27T06:22:09.544Z,6.00
2019-04-27T06:23:08.954Z,6.00
2019-04-27T06:24:08.752Z,5.10
2019-04-27T06:25:11.343Z,6.10
2019-04-27T06:26:11.404Z,7.10
2019-04-27T06:27:09.406Z,4.60
2019-04-27T06:28:09.206Z,5.70
2019-04-27T06:29:09.445Z,4.90
2019-04-27T06:30:09.341Z,4.90
2019-04-27T06:31:08.763Z,5.00
2019-04-27T06:32:09.023Z,4.70
2019-04-27T06:33:09.408Z,5.70
2019-04-27T06:34:09.652Z,4.80
2019-04-27T06:35:09.127Z,4.90
2019-04-27T06:36:09.874Z,5.50
2019-04-27T06:37:09.491Z,4.10
2019-04-27T06:38:07.695Z,3.60
2019-04-27T06:39:09.612Z,5.30
2019-04-27T06:40:09.641Z,5.80
2019-04-27T06:41:09.779Z,5.30
2019-04-27T06:42:16.738Z,4.90
2019-04-27T06:43:08.771Z,4.80
2019-04-27T06:44:10.987Z,6.10
2019-04-27T06:45:07.613Z,5.10
2019-04-27T06:46:08.807Z,7.80
2019-04-27T06:47:09.107Z,5.80
2019-04-27T06:48:09.487Z,4.90
2019-04-27T06:49:09.037Z,5.60
2019-04-27T06:50:08.551Z,4.30
2019-04-27T06:51:09.527Z,6.20
2019-04-27T06:52:08.648Z,4.80
2019-04-27T06:53:09.075Z,6.20
2019-04-27T06:54:09.132Z,4.20
2019-04-27T06:55:09.219Z,4.40
2019-04-27T06:56:08.944Z,4.70
2019-04-27T06:57:09.114Z,6.40
2019-04-27T06:58:08.984Z,4.20
2019-04-27T06:59:08.798Z,5.90
2019-04-27T07:00:09.082Z,5.60
2019-04-27T07:01:09.465Z,5.60
2019-04-27T07:02:08.706Z,5.00
2019-04-27T07:03:10.291Z,6.20
2019-04-27T07:04:10.492Z,8.10
2019-04-27T07:05:08.944Z,5.00
2019-04-27T07:06:08.826Z,5.40
2019-04-27T07:07:09.622Z,4.00
2019-04-27T07:08:08.898Z,6.00
2019-04-27T07:09:07.387Z,5.40
2019-04-27T07:10:08.653Z,5.00
2019-04-27T07:11:08.986Z,4.20
2019-04-27T07:12:08.851Z,5.10
2019-04-27T07:13:07.315Z,4.10
2019-04-27T07:14:07.330Z,5.60
2019-04-27T07:15:08.877Z,7.00
2019-04-27T07:16:07.282Z,4.80
2019-04-27T07:17:08.892Z,4.60
2019-04-27T07:18:07.259Z,4.40
2019-04-27T07:19:09.183Z,5.90
2019-04-27T07:20:08.905Z,4.60
2019-04-27T07:21:16.997Z,6.00
2019-04-27T07:22:09.121Z,6.50
2019-04-27T07:23:07.207Z,5.00
2019-04-27T07:24:08.500Z,5.60
2019-04-27T07:25:08.926Z,6.30
2019-04-27T07:26:07.180Z,3.70
2019-04-27T07:27:07.167Z,6.10
2019-04-27T07:28:09.048Z,6.90
2019-04-27T07:29:07.166Z,6.40
2019-04-27T07:30:11.430Z,6.60
2019-04-27T07:31:07.121Z,5.40
2019-04-27T07:32:07.110Z,6.30
2019-04-27T07:33:08.733Z,5.80
2019-04-27T07:34:07.118Z,5.20
2019-04-27T07:35:07.081Z,6.20
2019-04-27T07:36:08.846Z,5.90
2019-04-27T07:37:07.060Z,4.90
2019-04-27T07:38:07.043Z,6.70
2019-04-27T07:39:07.065Z,6.30
2019-04-27T07:40:07.027Z,5.10
2019-04-27T07:41:07.010Z,5.60
2019-04-27T07:42:08.572Z,6.80
2019-04-27T07:43:06.990Z,5.90
2019-04-27T07:44:08.698Z,6.60
2019-04-27T07:45:06.969Z,6.20
2019-04-27T07:46:08.767Z,6.80
2019-04-27T07:47:06.958Z,7.00
2019-04-27T07:48:06.939Z,5.60
2019-04-27T07:49:06.946Z,5.00
2019-04-27T07:50:06.936Z,9.00
2019-04-27T07:51:06.906Z,11.20
2019-04-27T07:52:08.631Z,7.20
2019-04-27T07:53:08.513Z,6.60
2019-04-27T07:54:08.763Z,5.90
2019-04-27T07:55:08.607Z,5.40
2019-04-27T07:56:06.847Z,7.50
2019-04-27T07:57:06.841Z,7.00
2019-04-27T07:58:08.785Z,5.80
2019-04-27T07:59:06.843Z,6.80
2019-04-27T08:00:06.811Z,5.40
2019-04-27T08:01:06.796Z,5.70
2019-04-27T08:02:06.786Z,7.00
2019-04-27T08:03:06.781Z,5.90
2019-04-27T08:04:06.787Z,6.60
2019-04-27T08:05:06.751Z,5.40
2019-04-27T08:06:08.494Z,5.70
2019-04-27T08:07:06.728Z,7.10
2019-04-27T08:08:06.720Z,6.70
2019-04-27T08:09:06.741Z,5.60
2019-04-27T08:10:06.696Z,5.80
2019-04-27T08:11:06.692Z,4.50
2019-04-27T08:12:06.683Z,6.20
2019-04-27T08:13:06.669Z,5.60
2019-04-27T08:14:08.658Z,6.60
2019-04-27T08:15:06.659Z,7.60
2019-04-27T08:16:06.636Z,5.30
2019-04-27T08:17:06.624Z,4.60
2019-04-27T08:18:06.619Z,6.90
2019-04-27T08:19:06.634Z,5.30
2019-04-27T08:20:06.590Z,5.40
2019-04-27T08:21:06.582Z,6.70
2019-04-27T08:22:06.570Z,6.20
2019-04-27T08:23:06.567Z,7.60
2019-04-27T08:24:06.576Z,5.90
2019-04-27T08:25:06.538Z,5.10
2019-04-27T08:26:06.526Z,8.50
2019-04-27T08:27:06.518Z,6.60
2019-04-27T08:28:06.511Z,5.90
2019-04-27T08:29:06.526Z,5.40
2019-04-27T08:30:06.489Z,5.20
2019-04-27T08:31:06.479Z,6.20
2019-04-27T08:32:06.467Z,5.30
2019-04-27T08:33:06.457Z,6.90
2019-04-27T08:34:06.480Z,5.20
2019-04-27T08:35:06.444Z,6.70
2019-04-27T08:36:06.423Z,8.20
2019-04-27T08:37:06.416Z,5.50
2019-04-27T08:38:06.403Z,6.30
2019-04-27T08:39:06.420Z,6.00
2019-04-27T08:40:06.381Z,5.10
2019-04-27T08:41:06.380Z,7.10
2019-04-27T08:42:06.351Z,6.40
2019-04-27T08:43:06.350Z,5.50
2019-04-27T08:44:06.356Z,6.40
2019-04-27T08:45:06.327Z,5.30
2019-04-27T08:46:06.320Z,6.30
2019-04-27T08:47:06.318Z,5.30
2019-04-27T08:48:06.302Z,6.90
2019-04-27T08:49:06.312Z,5.40
2019-04-27T08:50:06.288Z,5.90
2019-04-27T08:51:06.268Z,7.30
2019-04-27T08:52:06.259Z,6.50
2019-04-27T08:53:06.255Z,5.30
2019-04-27T08:54:06.268Z,9.20
2019-04-27T08:55:06.224Z,7.20
2019-04-27T08:56:06.214Z,8.30
2019-04-27T08:57:06.207Z,6.70
2019-04-27T08:58:06.196Z,6.90
2019-04-27T08:59:06.210Z,5.20
2019-04-27T09:00:06.173Z,6.00
2019-04-27T09:01:08.497Z,6.70
2019-04-27T09:02:06.147Z,7.10
2019-04-27T09:03:06.142Z,6.90
2019-04-27T09:04:06.162Z,9.10
2019-04-27T09:05:06.125Z,5.90
2019-04-27T09:06:06.111Z,7.20
2019-04-27T09:07:06.121Z,6.40
2019-04-27T09:08:06.099Z,5.70
2019-04-27T09:09:06.076Z,7.40
2019-04-27T09:10:06.095Z,8.00
2019-04-27T09:11:06.056Z,7.10
2019-04-27T09:12:06.043Z,7.20
2019-04-27T09:13:06.031Z,7.40
2019-04-27T09:14:06.023Z,10.10
2019-04-27T09:15:06.038Z,9.70
2019-04-27T09:16:06.005Z,6.50
2019-04-27T09:17:05.986Z,7.30
2019-04-27T09:18:05.982Z,6.40
2019-04-27T09:19:05.971Z,6.60
2019-04-27T09:20:05.982Z,7.20
2019-04-27T09:21:05.947Z,7.70
2019-04-27T09:22:13.447Z,10.10
2019-04-27T09:23:06.927Z,6.80
2019-04-27T09:24:05.920Z,12.20
2019-04-27T09:25:05.945Z,7.80
2019-04-27T09:26:05.892Z,11.50
2019-04-27T09:27:05.889Z,7.50
2019-04-27T09:28:05.878Z,8.10
2019-04-27T09:29:05.850Z,9.80
2019-04-27T09:30:05.881Z,8.10
2019-04-27T09:31:05.832Z,9.40
2019-04-27T09:32:05.820Z,9.00
2019-04-27T09:33:05.837Z,7.40
2019-04-27T09:34:05.799Z,11.70
2019-04-27T09:35:05.907Z,10.10
2019-04-27T09:36:06.164Z,9.70
2019-04-27T09:37:06.121Z,8.50
2019-04-27T09:38:07.083Z,9.90
2019-04-27T09:39:06.261Z,11.10
2019-04-27T09:40:06.303Z,12.10
2019-04-27T09:41:07.218Z,9.40
2019-04-27T09:42:06.502Z,13.30
2019-04-27T09:43:07.401Z,11.70
2019-04-27T09:44:05.892Z,9.20
2019-04-27T09:45:06.639Z,8.60
2019-04-27T09:46:05.896Z,9.20
2019-04-27T09:47:06.100Z,10.60
2019-04-27T09:48:06.641Z,10.30
2019-04-27T09:49:07.364Z,15.60
2019-04-27T09:50:05.787Z,10.60
2019-04-27T09:51:06.433Z,13.20
2019-04-27T09:52:06.291Z,15.10
2019-04-27T09:53:06.388Z,11.50
2019-04-27T09:54:05.902Z,12.40
2019-04-27T09:55:06.696Z,12.80
2019-04-27T09:56:05.913Z,11.20
2019-04-27T09:57:06.924Z,11.60
2019-04-27T09:58:05.836Z,12.50
2019-04-27T09:59:06.413Z,13.50
2019-04-27T10:00:06.393Z,12.30
2019-04-27T10:01:06.620Z,9.30
2019-04-27T10:02:05.516Z,8.50
2019-04-27T10:03:06.645Z,10.70
2019-04-27T10:04:05.502Z,7.30
2019-04-27T10:05:06.034Z,8.10
2019-04-27T10:06:05.948Z,7.20
2019-04-27T10:07:06.203Z,7.80
2019-04-27T10:08:06.204Z,10.00
2019-04-27T10:09:06.579Z,9.70
2019-04-27T10:10:06.457Z,8.00
2019-04-27T10:11:05.951Z,8.50
2019-04-27T10:12:07.325Z,8.00
2019-04-27T10:13:07.032Z,6.20
2019-04-27T10:14:05.921Z,6.00
2019-04-27T10:15:06.138Z,8.30
2019-04-27T10:16:05.374Z,9.00
2019-04-27T10:17:05.351Z,8.20
2019-04-27T10:18:06.100Z,6.90
2019-04-27T10:19:05.329Z,7.80
2019-04-27T10:20:05.974Z,9.40
2019-04-27T10:21:06.332Z,7.40
2019-04-27T10:22:05.814Z,6.10
2019-04-27T10:23:06.239Z,6.40
2019-04-27T10:24:06.596Z,7.20
2019-04-27T10:25:05.297Z,5.20
2019-04-27T10:26:05.847Z,6.40
2019-04-27T10:27:05.587Z,7.10
2019-04-27T10:28:06.763Z,9.10
2019-04-27T10:29:06.184Z,8.50
2019-04-27T10:30:05.818Z,6.80
2019-04-27T10:31:06.891Z,5.00
2019-04-27T10:32:06.229Z,6.30
2019-04-27T10:33:07.750Z,7.10
2019-04-27T10:34:05.983Z,5.90
2019-04-27T10:35:05.784Z,8.70
2019-04-27T10:36:06.496Z,6.20
2019-04-27T10:37:06.063Z,9.70
2019-04-27T10:38:05.140Z,7.40
2019-04-27T10:39:05.625Z,6.40
2019-04-27T10:40:06.043Z,6.20
2019-04-27T10:41:05.645Z,5.10
2019-04-27T10:42:06.764Z,7.20
2019-04-27T10:43:06.260Z,7.50
2019-04-27T10:44:05.804Z,6.90
2019-04-27T10:45:06.409Z,7.30
2019-04-27T10:46:06.676Z,4.80
2019-04-27T10:47:05.881Z,7.20
2019-04-27T10:48:05.017Z,5.40
2019-04-27T10:49:05.886Z,5.50
2019-04-27T10:50:05.851Z,6.40
2019-04-27T10:51:07.041Z,5.40
2019-04-27T10:52:05.924Z,5.40
2019-04-27T10:53:06.929Z,6.80
2019-04-27T10:54:04.955Z,6.00
2019-04-27T10:55:05.960Z,5.90
2019-04-27T10:56:04.938Z,6.10
2019-04-27T10:57:06.094Z,6.50
2019-04-27T10:58:04.915Z,5.40
2019-04-27T10:59:06.551Z,5.60
2019-04-27T11:00:06.583Z,4.50
2019-04-27T11:01:05.586Z,6.50
2019-04-27T11:02:04.877Z,5.40
2019-04-27T11:03:06.550Z,4.50
2019-04-27T11:04:05.947Z,6.30
2019-04-27T11:05:06.682Z,4.50
2019-04-27T11:06:05.910Z,4.90
2019-04-27T11:07:05.469Z,5.40
2019-04-27T11:08:06.593Z,4.30
2019-04-27T11:09:06.041Z,4.80
2019-04-27T11:10:05.638Z,5.80
2019-04-27T11:11:04.778Z,5.20
2019-04-27T11:12:06.740Z,4.80
2019-04-27T11:13:06.264Z,6.10
2019-04-27T11:14:06.748Z,5.70
2019-04-27T11:15:05.839Z,4.90
2019-04-27T11:16:04.728Z,5.10
2019-04-27T11:17:06.289Z,6.50
2019-04-27T11:18:06.323Z,5.50
2019-04-27T11:19:06.581Z,4.90
2019-04-27T11:20:04.711Z,6.70
2019-04-27T11:21:05.758Z,5.00
2019-04-27T11:22:07.059Z,4.90
2019-04-27T11:23:09.208Z,3.90
2019-04-27T11:24:05.638Z,5.20
2019-04-27T11:25:06.238Z,6.80
2019-04-27T11:26:07.458Z,6.30
2019-04-27T11:27:05.856Z,4.10
2019-04-27T11:28:05.797Z,5.20
2019-04-27T11:29:04.588Z,5.60
2019-04-27T11:30:04.598Z,4.10
2019-04-27T11:31:04.575Z,5.30
2019-04-27T11:32:05.758Z,4.20
2019-04-27T11:33:06.240Z,5.80
2019-04-27T11:34:04.532Z,5.90
2019-04-27T11:35:05.720Z,6.40
2019-04-27T11:36:04.515Z,5.20
2019-04-27T11:37:05.563Z,4.60
2019-04-27T11:38:05.617Z,3.70
2019-04-27T11:39:04.481Z,4.40
2019-04-27T11:40:04.525Z,5.30
2019-04-27T11:41:04.463Z,4.60
2019-04-27T11:42:04.449Z,5.10
2019-04-27T11:43:05.938Z,4.40
2019-04-27T11:44:04.428Z,5.30
2019-04-27T11:45:06.394Z,5.80
2019-04-27T11:46:06.054Z,5.60
2019-04-27T11:47:06.004Z,4.90
2019-04-27T11:48:05.803Z,5.00
2019-04-27T11:49:04.390Z,5.70
2019-04-27T11:50:04.411Z,5.90
2019-04-27T11:51:04.349Z,5.70
2019-04-27T11:52:05.815Z,5.20
2019-04-27T11:53:06.036Z,5.40
2019-04-27T11:54:04.325Z,6.00
2019-04-27T11:55:05.782Z,8.20
2019-04-27T11:56:04.300Z,8.60
2019-04-27T11:57:04.294Z,29.80
2019-04-27T11:58:04.282Z,8.50
2019-04-27T11:59:04.269Z,7.50
2019-04-27T12:00:04.292Z,7.30
2019-04-27T12:01:04.247Z,8.00
2019-04-27T12:02:04.238Z,7.30
2019-04-27T12:03:04.228Z,6.20
2019-04-27T12:04:05.794Z,6.60
2019-04-27T12:05:04.230Z,5.50
2019-04-27T12:06:04.195Z,6.20
2019-04-27T12:07:04.185Z,8.20
2019-04-27T12:08:06.071Z,6.90
2019-04-27T12:09:04.165Z,5.90
2019-04-27T12:10:05.687Z,4.70
2019-04-27T12:11:05.826Z,6.60
2019-04-27T12:12:13.505Z,6.00
2019-04-27T12:13:05.762Z,4.50
2019-04-27T12:14:04.106Z,17.50
2019-04-27T12:15:05.794Z,13.00
2019-04-27T12:16:04.089Z,38.70
2019-04-27T12:17:04.078Z,45.70
2019-04-27T12:18:08.559Z,11.60
2019-04-27T12:19:06.562Z,7.50
2019-04-27T12:20:04.078Z,11.40
2019-04-27T12:21:04.039Z,8.90
2019-04-27T12:22:04.023Z,8.60
2019-04-27T12:23:03.999Z,8.50
2019-04-27T12:24:04.002Z,11.80
2019-04-27T12:25:04.024Z,11.20
2019-04-27T12:26:05.717Z,15.40
2019-04-27T12:27:05.726Z,12.20
2019-04-27T12:28:03.959Z,11.30
2019-04-27T12:29:03.946Z,11.90
2019-04-27T12:30:03.972Z,11.80
2019-04-27T12:31:03.928Z,12.10
2019-04-27T12:32:05.553Z,16.20
2019-04-27T12:33:03.907Z,14.30
2019-04-27T12:34:06.117Z,21.30
2019-04-27T12:35:03.916Z,13.40
2019-04-27T12:36:03.900Z,13.80
2019-04-27T12:37:07.135Z,17.00
2019-04-27T12:38:05.811Z,13.20
2019-04-27T12:39:05.437Z,18.30
2019-04-27T12:40:05.822Z,13.00
2019-04-27T12:41:03.837Z,14.30
2019-04-27T12:42:03.807Z,12.50
2019-04-27T12:43:03.789Z,11.90
2019-04-27T12:44:03.780Z,17.20
2019-04-27T12:45:03.814Z,16.00
2019-04-27T12:46:03.764Z,17.20
2019-04-27T12:47:03.755Z,13.20
2019-04-27T12:48:03.748Z,21.50
2019-04-27T12:49:03.741Z,24.90
2019-04-27T12:50:03.751Z,21.40
2019-04-27T12:51:03.716Z,23.10
2019-04-27T12:52:03.704Z,12.60
2019-04-27T12:53:03.743Z,19.20
2019-04-27T12:54:03.688Z,14.80
2019-04-27T12:55:03.709Z,21.40
2019-04-27T12:56:03.668Z,18.90
2019-04-27T12:57:03.674Z,17.50
2019-04-27T12:58:03.637Z,12.10
2019-04-27T12:59:03.631Z,15.70
2019-04-27T13:00:03.647Z,13.70
2019-04-27T13:01:03.611Z,17.20
2019-04-27T13:02:03.599Z,14.90
2019-04-27T13:03:03.596Z,19.10
2019-04-27T13:04:03.576Z,21.10
2019-04-27T13:05:05.238Z,17.10
2019-04-27T13:06:03.554Z,20.20
2019-04-27T13:07:03.542Z,26.60
2019-04-27T13:08:03.536Z,24.70